sensor_id;sensor_type;location;lat;lon;timestamp;P1;durP1;ratioP1;P2;durP2;ratioP2
9256;SDS011;4665;51.368;6.782;2023-06-26T00:00:44;5.90;;;5.47;;
9256;SDS011;4665;51.368;6.782;2023-06-26T00:03:10;6.13;;;5.53;;
9256;SDS011;4665;51.368;6.782;2023-06-26T00:05:39;5.90;;;5.50;;
9256;SDS011;4665;51.368;6.782;2023-06-26T00:08:04;5.80;;;5.40;;
9256;SDS011;4665;51.368;6.782;2023-06-26T00:10:30;5.70;;;5.30;;
9256;SDS011;4665;51.368;6.782;2023-06-26T00:12:56;6.13;;;5.63;;
9256;SDS011;4665;51.368;6.782;2023-06-26T00:15:21;5.73;;;5.33;;
9256;SDS011;4665;51.368;6.782;2023-06-26T00:17:47;6.10;;;5.60;;
9256;SDS011;4665;51.368;6.782;2023-06-26T00:20:12;5.73;;;5.33;;
9256;SDS011;4665;51.368;6.782;2023-06-26T00:22:41;6.07;;;5.67;;
9256;SDS011;4665;51.368;6.782;2023-06-26T00:25:07;5.70;;;5.30;;
9256;SDS011;4665;51.368;6.782;2023-06-26T00:27:33;5.93;;;5.33;;
9256;SDS011;4665;51.368;6.782;2023-06-26T00:29:58;6.13;;;5.57;;
9256;SDS011;4665;51.368;6.782;2023-06-26T00:32:24;5.77;;;5.37;;
9256;SDS011;4665;51.368;6.782;2023-06-26T00:34:49;6.33;;;5.77;;
9256;SDS011;4665;51.368;6.782;2023-06-26T00:37:15;5.13;;;4.83;;
9256;SDS011;4665;51.368;6.782;2023-06-26T00:39:40;6.30;;;5.80;;
9256;SDS011;4665;51.368;6.782;2023-06-26T00:42:06;5.60;;;5.20;;
9256;SDS011;4665;51.368;6.782;2023-06-26T00:44:32;5.70;;;5.30;;
9256;SDS011;4665;51.368;6.782;2023-06-26T00:46:57;5.67;;;5.27;;
9256;SDS011;4665;51.368;6.782;2023-06-26T00:49:23;6.17;;;5.70;;
9256;SDS011;4665;51.368;6.782;2023-06-26T00:51:51;6.30;;;5.80;;
9256;SDS011;4665;51.368;6.782;2023-06-26T00:54:16;6.20;;;5.70;;
9256;SDS011;4665;51.368;6.782;2023-06-26T00:56:45;6.17;;;5.67;;
9256;SDS011;4665;51.368;6.782;2023-06-26T00:59:12;5.88;;;5.47;;
9256;SDS011;4665;51.368;6.782;2023-06-26T01:01:38;5.97;;;5.47;;
9256;SDS011;4665;51.368;6.782;2023-06-26T01:04:03;6.10;;;5.60;;
9256;SDS011;4665;51.368;6.782;2023-06-26T01:06:30;6.20;;;5.60;;
9256;SDS011;4665;51.368;6.782;2023-06-26T01:09:01;5.60;;;5.20;;
9256;SDS011;4665;51.368;6.782;2023-06-26T01:11:28;5.80;;;5.30;;
9256;SDS011;4665;51.368;6.782;2023-06-26T01:13:53;7.10;;;5.30;;
9256;SDS011;4665;51.368;6.782;2023-06-26T01:16:24;6.17;;;5.67;;
9256;SDS011;4665;51.368;6.782;2023-06-26T01:18:51;5.80;;;5.40;;
9256;SDS011;4665;51.368;6.782;2023-06-26T01:21:17;6.07;;;5.67;;
9256;SDS011;4665;51.368;6.782;2023-06-26T01:23:49;5.63;;;5.23;;
9256;SDS011;4665;51.368;6.782;2023-06-26T01:26:30;6.73;;;6.13;;
9256;SDS011;4665;51.368;6.782;2023-06-26T01:29:00;6.03;;;5.60;;
9256;SDS011;4665;51.368;6.782;2023-06-26T01:31:30;6.13;;;5.70;;
9256;SDS011;4665;51.368;6.782;2023-06-26T01:33:57;5.60;;;5.20;;
9256;SDS011;4665;51.368;6.782;2023-06-26T01:36:24;6.90;;;6.20;;
9256;SDS011;4665;51.368;6.782;2023-06-26T01:38:50;6.00;;;5.50;;
9256;SDS011;4665;51.368;6.782;2023-06-26T01:41:16;6.00;;;5.50;;
9256;SDS011;4665;51.368;6.782;2023-06-26T01:52:08;5.97;;;5.57;;
9256;SDS011;4665;51.368;6.782;2023-06-26T01:54:44;6.37;;;5.47;;
9256;SDS011;4665;51.368;6.782;2023-06-26T01:57:15;5.83;;;5.40;;
9256;SDS011;4665;51.368;6.782;2023-06-26T01:59:43;5.77;;;5.37;;
9256;SDS011;4665;51.368;6.782;2023-06-26T02:02:11;8.20;;;6.00;;
9256;SDS011;4665;51.368;6.782;2023-06-26T02:04:37;7.10;;;6.10;;
9256;SDS011;4665;51.368;6.782;2023-06-26T02:07:03;6.60;;;6.00;;
9256;SDS011;4665;51.368;6.782;2023-06-26T02:09:28;5.73;;;5.33;;
9256;SDS011;4665;51.368;6.782;2023-06-26T02:11:54;5.60;;;5.20;;
9256;SDS011;4665;51.368;6.782;2023-06-26T02:14:19;5.67;;;5.27;;
9256;SDS011;4665;51.368;6.782;2023-06-26T02:16:45;5.97;;;5.50;;
9256;SDS011;4665;51.368;6.782;2023-06-26T02:19:10;6.77;;;6.17;;
9256;SDS011;4665;51.368;6.782;2023-06-26T02:21:36;6.40;;;5.90;;
9256;SDS011;4665;51.368;6.782;2023-06-26T02:24:03;5.90;;;5.50;;
9256;SDS011;4665;51.368;6.782;2023-06-26T02:26:29;7.30;;;6.60;;
9256;SDS011;4665;51.368;6.782;2023-06-26T02:28:55;7.17;;;6.60;;
9256;SDS011;4665;51.368;6.782;2023-06-26T02:31:20;6.40;;;5.90;;
9256;SDS011;4665;51.368;6.782;2023-06-26T02:33:46;6.57;;;6.07;;
9256;SDS011;4665;51.368;6.782;2023-06-26T02:36:11;6.30;;;5.87;;
9256;SDS011;4665;51.368;6.782;2023-06-26T02:38:36;6.43;;;5.93;;
9256;SDS011;4665;51.368;6.782;2023-06-26T02:41:02;7.13;;;6.53;;
9256;SDS011;4665;51.368;6.782;2023-06-26T02:43:27;6.50;;;5.90;;
9256;SDS011;4665;51.368;6.782;2023-06-26T02:45:55;5.97;;;5.50;;
9256;SDS011;4665;51.368;6.782;2023-06-26T02:48:21;6.37;;;5.87;;
9256;SDS011;4665;51.368;6.782;2023-06-26T02:50:46;6.60;;;6.10;;
9256;SDS011;4665;51.368;6.782;2023-06-26T02:53:12;6.47;;;5.97;;
9256;SDS011;4665;51.368;6.782;2023-06-26T02:55:38;6.40;;;5.50;;
9256;SDS011;4665;51.368;6.782;2023-06-26T02:58:03;6.40;;;5.90;;
9256;SDS011;4665;51.368;6.782;2023-06-26T03:00:28;6.03;;;5.63;;
9256;SDS011;4665;51.368;6.782;2023-06-26T03:02:55;6.63;;;6.13;;
9256;SDS011;4665;51.368;6.782;2023-06-26T03:05:20;6.23;;;5.73;;
9256;SDS011;4665;51.368;6.782;2023-06-26T03:07:46;8.13;;;6.13;;
9256;SDS011;4665;51.368;6.782;2023-06-26T03:10:12;6.43;;;5.83;;
9256;SDS011;4665;51.368;6.782;2023-06-26T03:12:37;7.17;;;6.50;;
9256;SDS011;4665;51.368;6.782;2023-06-26T03:15:03;6.67;;;6.13;;
9256;SDS011;4665;51.368;6.782;2023-06-26T03:17:28;6.27;;;5.77;;
9256;SDS011;4665;51.368;6.782;2023-06-26T03:19:54;7.37;;;5.83;;
9256;SDS011;4665;51.368;6.782;2023-06-26T03:22:19;7.13;;;5.87;;
9256;SDS011;4665;51.368;6.782;2023-06-26T03:24:44;6.20;;;5.60;;
9256;SDS011;4665;51.368;6.782;2023-06-26T03:27:13;8.07;;;5.97;;
9256;SDS011;4665;51.368;6.782;2023-06-26T03:29:38;9.10;;;6.43;;
9256;SDS011;4665;51.368;6.782;2023-06-26T03:32:04;8.83;;;6.50;;
9256;SDS011;4665;51.368;6.782;2023-06-26T03:34:29;6.13;;;5.63;;
9256;SDS011;4665;51.368;6.782;2023-06-26T03:36:55;6.73;;;6.10;;
9256;SDS011;4665;51.368;6.782;2023-06-26T03:39:20;6.90;;;6.30;;
9256;SDS011;4665;51.368;6.782;2023-06-26T03:41:46;6.23;;;5.73;;
9256;SDS011;4665;51.368;6.782;2023-06-26T03:44:11;8.70;;;5.87;;
9256;SDS011;4665;51.368;6.782;2023-06-26T03:46:37;6.70;;;6.10;;
9256;SDS011;4665;51.368;6.782;2023-06-26T03:49:02;5.93;;;5.47;;
9256;SDS011;4665;51.368;6.782;2023-06-26T03:51:28;6.17;;;5.67;;
9256;SDS011;4665;51.368;6.782;2023-06-26T03:53:54;6.93;;;6.33;;
9256;SDS011;4665;51.368;6.782;2023-06-26T03:56:25;8.30;;;6.00;;
9256;SDS011;4665;51.368;6.782;2023-06-26T03:58:51;7.33;;;6.63;;
9256;SDS011;4665;51.368;6.782;2023-06-26T04:01:16;7.10;;;6.40;;
9256;SDS011;4665;51.368;6.782;2023-06-26T04:03:42;7.53;;;6.53;;
9256;SDS011;4665;51.368;6.782;2023-06-26T04:06:07;6.93;;;6.23;;
9256;SDS011;4665;51.368;6.782;2023-06-26T04:08:32;7.30;;;6.50;;
9256;SDS011;4665;51.368;6.782;2023-06-26T04:10:58;6.33;;;5.90;;
9256;SDS011;4665;51.368;6.782;2023-06-26T04:13:24;7.03;;;6.43;;
9256;SDS011;4665;51.368;6.782;2023-06-26T04:15:49;7.90;;;6.33;;
9256;SDS011;4665;51.368;6.782;2023-06-26T04:18:15;7.97;;;6.53;;
9256;SDS011;4665;51.368;6.782;2023-06-26T04:20:41;6.90;;;6.20;;
9256;SDS011;4665;51.368;6.782;2023-06-26T04:23:27;7.90;;;6.70;;
9256;SDS011;4665;51.368;6.782;2023-06-26T04:25:52;7.60;;;6.80;;
9256;SDS011;4665;51.368;6.782;2023-06-26T04:28:17;7.00;;;6.40;;
9256;SDS011;4665;51.368;6.782;2023-06-26T04:30:45;6.60;;;6.00;;
9256;SDS011;4665;51.368;6.782;2023-06-26T04:33:11;7.63;;;6.63;;
9256;SDS011;4665;51.368;6.782;2023-06-26T04:35:37;6.20;;;5.70;;
9256;SDS011;4665;51.368;6.782;2023-06-26T04:38:02;7.20;;;6.60;;
9256;SDS011;4665;51.368;6.782;2023-06-26T04:40:28;6.60;;;6.03;;
9256;SDS011;4665;51.368;6.782;2023-06-26T04:42:53;8.53;;;6.37;;
9256;SDS011;4665;51.368;6.782;2023-06-26T04:45:18;9.37;;;6.10;;
9256;SDS011;4665;51.368;6.782;2023-06-26T04:47:44;6.70;;;6.07;;
9256;SDS011;4665;51.368;6.782;2023-06-26T04:50:09;7.77;;;6.97;;
9256;SDS011;4665;51.368;6.782;2023-06-26T04:52:35;8.67;;;6.13;;
9256;SDS011;4665;51.368;6.782;2023-06-26T04:55:00;7.90;;;5.97;;
9256;SDS011;4665;51.368;6.782;2023-06-26T04:57:26;7.10;;;5.80;;
9256;SDS011;4665;51.368;6.782;2023-06-26T04:59:51;6.37;;;5.67;;
9256;SDS011;4665;51.368;6.782;2023-06-26T05:02:16;7.63;;;5.87;;
9256;SDS011;4665;51.368;6.782;2023-06-26T05:04:42;7.10;;;5.17;;
9256;SDS011;4665;51.368;6.782;2023-06-26T05:07:07;7.53;;;5.47;;
9256;SDS011;4665;51.368;6.782;2023-06-26T05:09:33;5.73;;;5.10;;
9256;SDS011;4665;51.368;6.782;2023-06-26T05:11:58;9.03;;;5.40;;
9256;SDS011;4665;51.368;6.782;2023-06-26T05:14:24;7.23;;;4.93;;
9256;SDS011;4665;51.368;6.782;2023-06-26T05:16:49;5.43;;;4.80;;
9256;SDS011;4665;51.368;6.782;2023-06-26T05:19:15;6.50;;;4.93;;
9256;SDS011;4665;51.368;6.782;2023-06-26T05:21:40;5.90;;;4.63;;
9256;SDS011;4665;51.368;6.782;2023-06-26T05:24:07;5.43;;;4.50;;
9256;SDS011;4665;51.368;6.782;2023-06-26T05:26:34;5.43;;;4.93;;
9256;SDS011;4665;51.368;6.782;2023-06-26T05:28:59;10.27;;;4.80;;
9256;SDS011;4665;51.368;6.782;2023-06-26T05:31:25;5.77;;;5.17;;
9256;SDS011;4665;51.368;6.782;2023-06-26T05:33:51;4.97;;;4.40;;
9256;SDS011;4665;51.368;6.782;2023-06-26T05:36:20;5.93;;;4.93;;
9256;SDS011;4665;51.368;6.782;2023-06-26T05:38:49;9.30;;;4.70;;
9256;SDS011;4665;51.368;6.782;2023-06-26T05:41:15;5.87;;;5.27;;
9256;SDS011;4665;51.368;6.782;2023-06-26T05:43:41;6.93;;;4.87;;
9256;SDS011;4665;51.368;6.782;2023-06-26T05:46:06;6.77;;;5.00;;
9256;SDS011;4665;51.368;6.782;2023-06-26T05:48:32;8.80;;;5.07;;
9256;SDS011;4665;51.368;6.782;2023-06-26T05:50:57;6.53;;;5.20;;
9256;SDS011;4665;51.368;6.782;2023-06-26T05:53:23;8.03;;;4.40;;
9256;SDS011;4665;51.368;6.782;2023-06-26T05:55:49;5.50;;;4.47;;
9256;SDS011;4665;51.368;6.782;2023-06-26T05:58:14;7.60;;;4.97;;
9256;SDS011;4665;51.368;6.782;2023-06-26T06:00:43;7.17;;;4.90;;
9256;SDS011;4665;51.368;6.782;2023-06-26T06:03:09;6.17;;;5.20;;
9256;SDS011;4665;51.368;6.782;2023-06-26T06:05:35;5.77;;;4.90;;
9256;SDS011;4665;51.368;6.782;2023-06-26T06:08:01;5.37;;;4.50;;
9256;SDS011;4665;51.368;6.782;2023-06-26T06:10:26;7.70;;;4.73;;
9256;SDS011;4665;51.368;6.782;2023-06-26T06:12:52;9.03;;;4.90;;
9256;SDS011;4665;51.368;6.782;2023-06-26T06:18:32;11.00;;;5.00;;
9256;SDS011;4665;51.368;6.782;2023-06-26T06:23:44;6.93;;;5.13;;
9256;SDS011;4665;51.368;6.782;2023-06-26T06:26:10;6.90;;;4.50;;
9256;SDS011;4665;51.368;6.782;2023-06-26T06:31:44;5.73;;;4.47;;
9256;SDS011;4665;51.368;6.782;2023-06-26T06:37:03;6.60;;;4.70;;
9256;SDS011;4665;51.368;6.782;2023-06-26T06:39:31;7.93;;;4.93;;
9256;SDS011;4665;51.368;6.782;2023-06-26T06:41:56;6.17;;;5.57;;
9256;SDS011;4665;51.368;6.782;2023-06-26T06:44:26;6.73;;;4.77;;
9256;SDS011;4665;51.368;6.782;2023-06-26T06:46:51;7.83;;;5.63;;
9256;SDS011;4665;51.368;6.782;2023-06-26T06:52:18;9.53;;;5.57;;
9256;SDS011;4665;51.368;6.782;2023-06-26T06:54:55;5.60;;;5.00;;
9256;SDS011;4665;51.368;6.782;2023-06-26T06:57:24;7.83;;;4.80;;
9256;SDS011;4665;51.368;6.782;2023-06-26T06:59:52;8.03;;;5.20;;
9256;SDS011;4665;51.368;6.782;2023-06-26T07:02:18;8.80;;;5.17;;
9256;SDS011;4665;51.368;6.782;2023-06-26T07:07:34;7.87;;;6.13;;
9256;SDS011;4665;51.368;6.782;2023-06-26T07:12:31;10.20;;;5.30;;
9256;SDS011;4665;51.368;6.782;2023-06-26T07:17:48;14.33;;;5.97;;
9256;SDS011;4665;51.368;6.782;2023-06-26T07:25:55;8.47;;;5.43;;
9256;SDS011;4665;51.368;6.782;2023-06-26T07:31:24;8.97;;;6.30;;
9256;SDS011;4665;51.368;6.782;2023-06-26T07:33:49;11.43;;;6.13;;
9256;SDS011;4665;51.368;6.782;2023-06-26T07:36:15;8.20;;;5.50;;
9256;SDS011;4665;51.368;6.782;2023-06-26T07:38:40;9.63;;;5.87;;
9256;SDS011;4665;51.368;6.782;2023-06-26T07:41:10;8.60;;;5.60;;
9256;SDS011;4665;51.368;6.782;2023-06-26T07:43:35;9.93;;;5.80;;
9256;SDS011;4665;51.368;6.782;2023-06-26T07:46:06;7.13;;;5.53;;
9256;SDS011;4665;51.368;6.782;2023-06-26T07:48:31;10.33;;;5.90;;
9256;SDS011;4665;51.368;6.782;2023-06-26T07:53:35;9.83;;;5.93;;
9256;SDS011;4665;51.368;6.782;2023-06-26T07:56:00;10.03;;;5.90;;
9256;SDS011;4665;51.368;6.782;2023-06-26T07:58:25;10.83;;;5.80;;
9256;SDS011;4665;51.368;6.782;2023-06-26T08:00:51;7.60;;;5.67;;
9256;SDS011;4665;51.368;6.782;2023-06-26T08:03:16;8.23;;;5.60;;
9256;SDS011;4665;51.368;6.782;2023-06-26T08:05:42;9.27;;;5.77;;
9256;SDS011;4665;51.368;6.782;2023-06-26T08:08:07;9.47;;;6.07;;
9256;SDS011;4665;51.368;6.782;2023-06-26T08:10:33;9.10;;;5.30;;
9256;SDS011;4665;51.368;6.782;2023-06-26T08:12:59;11.23;;;5.70;;
9256;SDS011;4665;51.368;6.782;2023-06-26T08:15:24;9.33;;;5.90;;
9256;SDS011;4665;51.368;6.782;2023-06-26T08:17:50;11.97;;;5.43;;
9256;SDS011;4665;51.368;6.782;2023-06-26T08:20:15;12.03;;;5.77;;
9256;SDS011;4665;51.368;6.782;2023-06-26T08:22:41;9.23;;;5.50;;
9256;SDS011;4665;51.368;6.782;2023-06-26T08:25:10;9.87;;;5.03;;
9256;SDS011;4665;51.368;6.782;2023-06-26T08:27:36;9.73;;;4.83;;
9256;SDS011;4665;51.368;6.782;2023-06-26T08:30:01;9.77;;;5.30;;
9256;SDS011;4665;51.368;6.782;2023-06-26T08:32:28;10.67;;;4.77;;
9256;SDS011;4665;51.368;6.782;2023-06-26T08:34:55;14.53;;;5.53;;
9256;SDS011;4665;51.368;6.782;2023-06-26T08:37:20;8.70;;;5.00;;
9256;SDS011;4665;51.368;6.782;2023-06-26T08:39:46;10.30;;;4.70;;
9256;SDS011;4665;51.368;6.782;2023-06-26T08:42:12;9.37;;;4.63;;
9256;SDS011;4665;51.368;6.782;2023-06-26T08:44:38;8.23;;;4.97;;
9256;SDS011;4665;51.368;6.782;2023-06-26T08:47:03;8.60;;;3.90;;
9256;SDS011;4665;51.368;6.782;2023-06-26T08:49:51;10.63;;;4.70;;
9256;SDS011;4665;51.368;6.782;2023-06-26T08:52:24;7.33;;;4.53;;
9256;SDS011;4665;51.368;6.782;2023-06-26T08:54:58;9.27;;;4.90;;
9256;SDS011;4665;51.368;6.782;2023-06-26T08:57:24;8.63;;;4.20;;
9256;SDS011;4665;51.368;6.782;2023-06-26T08:59:51;7.27;;;3.93;;
9256;SDS011;4665;51.368;6.782;2023-06-26T09:02:17;5.17;;;3.87;;
9256;SDS011;4665;51.368;6.782;2023-06-26T09:04:43;8.67;;;4.20;;
9256;SDS011;4665;51.368;6.782;2023-06-26T09:07:09;7.73;;;4.47;;
9256;SDS011;4665;51.368;6.782;2023-06-26T09:09:35;9.50;;;3.70;;
9256;SDS011;4665;51.368;6.782;2023-06-26T09:12:01;6.97;;;3.70;;
9256;SDS011;4665;51.368;6.782;2023-06-26T09:14:28;8.00;;;3.77;;
9256;SDS011;4665;51.368;6.782;2023-06-26T09:16:54;8.13;;;3.87;;
9256;SDS011;4665;51.368;6.782;2023-06-26T09:19:20;5.33;;;3.90;;
9256;SDS011;4665;51.368;6.782;2023-06-26T09:21:47;7.80;;;4.23;;
9256;SDS011;4665;51.368;6.782;2023-06-26T09:24:14;7.93;;;4.10;;
9256;SDS011;4665;51.368;6.782;2023-06-26T09:26:41;6.23;;;4.00;;
9256;SDS011;4665;51.368;6.782;2023-06-26T09:29:07;6.57;;;4.00;;
9256;SDS011;4665;51.368;6.782;2023-06-26T09:31:35;6.60;;;4.10;;
9256;SDS011;4665;51.368;6.782;2023-06-26T09:34:02;10.67;;;4.10;;
9256;SDS011;4665;51.368;6.782;2023-06-26T09:36:29;6.00;;;3.80;;
9256;SDS011;4665;51.368;6.782;2023-06-26T09:39:02;7.90;;;3.80;;
9256;SDS011;4665;51.368;6.782;2023-06-26T09:41:29;5.87;;;4.47;;
9256;SDS011;4665;51.368;6.782;2023-06-26T09:43:56;6.00;;;3.60;;
9256;SDS011;4665;51.368;6.782;2023-06-26T09:46:29;11.97;;;4.70;;
9256;SDS011;4665;51.368;6.782;2023-06-26T09:51:25;7.47;;;3.73;;
9256;SDS011;4665;51.368;6.782;2023-06-26T09:53:50;7.90;;;4.03;;
9256;SDS011;4665;51.368;6.782;2023-06-26T09:56:16;5.63;;;3.53;;
9256;SDS011;4665;51.368;6.782;2023-06-26T09:58:43;6.47;;;3.63;;
9256;SDS011;4665;51.368;6.782;2023-06-26T10:01:09;5.10;;;3.47;;
9256;SDS011;4665;51.368;6.782;2023-06-26T10:03:35;5.37;;;3.50;;
9256;SDS011;4665;51.368;6.782;2023-06-26T10:06:01;3.80;;;3.30;;
9256;SDS011;4665;51.368;6.782;2023-06-26T10:08:28;5.23;;;3.70;;
9256;SDS011;4665;51.368;6.782;2023-06-26T10:10:54;6.90;;;3.83;;
9256;SDS011;4665;51.368;6.782;2023-06-26T10:13:22;4.40;;;3.50;;
9256;SDS011;4665;51.368;6.782;2023-06-26T10:15:55;7.13;;;3.00;;
9256;SDS011;4665;51.368;6.782;2023-06-26T10:18:23;4.03;;;2.90;;
9256;SDS011;4665;51.368;6.782;2023-06-26T10:20:50;7.63;;;3.10;;
9256;SDS011;4665;51.368;6.782;2023-06-26T10:23:39;9.37;;;3.50;;
9256;SDS011;4665;51.368;6.782;2023-06-26T10:26:08;4.80;;;3.00;;
9256;SDS011;4665;51.368;6.782;2023-06-26T10:28:37;8.20;;;3.60;;
9256;SDS011;4665;51.368;6.782;2023-06-26T10:31:04;4.40;;;3.10;;
9256;SDS011;4665;51.368;6.782;2023-06-26T10:33:33;8.83;;;3.40;;
9256;SDS011;4665;51.368;6.782;2023-06-26T10:36:13;3.83;;;2.80;;
9256;SDS011;4665;51.368;6.782;2023-06-26T10:38:52;5.70;;;3.83;;
9256;SDS011;4665;51.368;6.782;2023-06-26T10:41:23;4.60;;;2.90;;
9256;SDS011;4665;51.368;6.782;2023-06-26T10:43:51;13.03;;;3.50;;
9256;SDS011;4665;51.368;6.782;2023-06-26T10:46:55;5.20;;;3.20;;
9256;SDS011;4665;51.368;6.782;2023-06-26T10:49:29;3.97;;;2.80;;
9256;SDS011;4665;51.368;6.782;2023-06-26T10:51:55;4.03;;;2.70;;
9256;SDS011;4665;51.368;6.782;2023-06-26T10:54:27;4.30;;;2.87;;
9256;SDS011;4665;51.368;6.782;2023-06-26T10:56:54;4.73;;;2.90;;
9256;SDS011;4665;51.368;6.782;2023-06-26T10:59:26;2.63;;;2.33;;
9256;SDS011;4665;51.368;6.782;2023-06-26T11:01:57;4.53;;;2.30;;
9256;SDS011;4665;51.368;6.782;2023-06-26T11:07:24;4.80;;;2.40;;
9256;SDS011;4665;51.368;6.782;2023-06-26T11:09:54;4.73;;;2.90;;
9256;SDS011;4665;51.368;6.782;2023-06-26T11:15:25;4.33;;;2.50;;
9256;SDS011;4665;51.368;6.782;2023-06-26T11:17:51;4.03;;;2.33;;
9256;SDS011;4665;51.368;6.782;2023-06-26T11:20:18;4.80;;;2.33;;
9256;SDS011;4665;51.368;6.782;2023-06-26T11:22:45;7.87;;;2.30;;
9256;SDS011;4665;51.368;6.782;2023-06-26T11:25:11;2.33;;;2.10;;
9256;SDS011;4665;51.368;6.782;2023-06-26T11:30:02;3.23;;;2.03;;
9256;SDS011;4665;51.368;6.782;2023-06-26T11:32:27;3.27;;;2.23;;
9256;SDS011;4665;51.368;6.782;2023-06-26T11:34:54;3.07;;;1.93;;
9256;SDS011;4665;51.368;6.782;2023-06-26T11:37:20;8.63;;;2.00;;
9256;SDS011;4665;51.368;6.782;2023-06-26T11:39:46;1.80;;;1.70;;
9256;SDS011;4665;51.368;6.782;2023-06-26T11:42:11;2.60;;;1.60;;
9256;SDS011;4665;51.368;6.782;2023-06-26T11:44:41;3.73;;;1.87;;
9256;SDS011;4665;51.368;6.782;2023-06-26T11:47:19;2.47;;;1.60;;
9256;SDS011;4665;51.368;6.782;2023-06-26T11:49:46;4.30;;;2.07;;
9256;SDS011;4665;51.368;6.782;2023-06-26T11:52:14;6.17;;;2.47;;
9256;SDS011;4665;51.368;6.782;2023-06-26T11:54:41;2.80;;;2.03;;
9256;SDS011;4665;51.368;6.782;2023-06-26T11:57:07;7.53;;;2.60;;
9256;SDS011;4665;51.368;6.782;2023-06-26T11:59:33;6.10;;;2.53;;
9256;SDS011;4665;51.368;6.782;2023-06-26T12:02:00;2.53;;;1.70;;
9256;SDS011;4665;51.368;6.782;2023-06-26T12:04:30;3.07;;;1.77;;
9256;SDS011;4665;51.368;6.782;2023-06-26T12:06:55;2.60;;;1.60;;
9256;SDS011;4665;51.368;6.782;2023-06-26T12:09:25;2.20;;;1.23;;
9256;SDS011;4665;51.368;6.782;2023-06-26T12:11:52;1.93;;;1.70;;
9256;SDS011;4665;51.368;6.782;2023-06-26T12:14:20;1.07;;;0.97;;
9256;SDS011;4665;51.368;6.782;2023-06-26T12:16:53;1.90;;;1.53;;
9256;SDS011;4665;51.368;6.782;2023-06-26T12:19:23;4.57;;;1.63;;
9256;SDS011;4665;51.368;6.782;2023-06-26T12:21:50;3.23;;;1.00;;
9256;SDS011;4665;51.368;6.782;2023-06-26T12:24:21;2.17;;;1.93;;
9256;SDS011;4665;51.368;6.782;2023-06-26T12:26:53;1.37;;;1.27;;
9256;SDS011;4665;51.368;6.782;2023-06-26T12:29:22;3.60;;;1.30;;
9256;SDS011;4665;51.368;6.782;2023-06-26T12:31:57;2.50;;;1.40;;
9256;SDS011;4665;51.368;6.782;2023-06-26T12:34:30;1.37;;;1.30;;
9256;SDS011;4665;51.368;6.782;2023-06-26T12:40:01;4.07;;;1.73;;
9256;SDS011;4665;51.368;6.782;2023-06-26T12:44:59;6.57;;;1.50;;
9256;SDS011;4665;51.368;6.782;2023-06-26T12:48:12;2.67;;;1.53;;
9256;SDS011;4665;51.368;6.782;2023-06-26T12:53:13;1.60;;;1.27;;
9256;SDS011;4665;51.368;6.782;2023-06-26T12:58:09;1.87;;;1.03;;
9256;SDS011;4665;51.368;6.782;2023-06-26T13:03:28;4.87;;;1.70;;
9256;SDS011;4665;51.368;6.782;2023-06-26T13:08:37;2.20;;;1.20;;
9256;SDS011;4665;51.368;6.782;2023-06-26T13:11:03;3.13;;;1.17;;
9256;SDS011;4665;51.368;6.782;2023-06-26T13:13:44;2.77;;;1.30;;
9256;SDS011;4665;51.368;6.782;2023-06-26T13:16:09;1.83;;;1.40;;
9256;SDS011;4665;51.368;6.782;2023-06-26T13:18:35;1.63;;;1.37;;
9256;SDS011;4665;51.368;6.782;2023-06-26T13:21:00;5.17;;;1.90;;
9256;SDS011;4665;51.368;6.782;2023-06-26T13:23:26;2.20;;;1.50;;
9256;SDS011;4665;51.368;6.782;2023-06-26T13:25:59;3.60;;;1.40;;
9256;SDS011;4665;51.368;6.782;2023-06-26T13:28:24;2.97;;;1.60;;
9256;SDS011;4665;51.368;6.782;2023-06-26T13:30:50;3.40;;;1.53;;
9256;SDS011;4665;51.368;6.782;2023-06-26T13:33:16;2.13;;;1.37;;
9256;SDS011;4665;51.368;6.782;2023-06-26T13:35:41;3.70;;;1.60;;
9256;SDS011;4665;51.368;6.782;2023-06-26T13:38:06;3.00;;;1.67;;
9256;SDS011;4665;51.368;6.782;2023-06-26T13:40:32;3.53;;;1.63;;
9256;SDS011;4665;51.368;6.782;2023-06-26T13:42:57;1.75;;;1.50;;
9256;SDS011;4665;51.368;6.782;2023-06-26T13:45:25;2.53;;;1.45;;
9256;SDS011;4665;51.368;6.782;2023-06-26T13:47:50;3.05;;;1.58;;
9256;SDS011;4665;51.368;6.782;2023-06-26T13:50:16;2.97;;;1.52;;
9256;SDS011;4665;51.368;6.782;2023-06-26T13:52:41;3.70;;;1.50;;
9256;SDS011;4665;51.368;6.782;2023-06-26T13:55:07;2.22;;;1.35;;
9256;SDS011;4665;51.368;6.782;2023-06-26T13:57:32;3.72;;;1.50;;
9256;SDS011;4665;51.368;6.782;2023-06-26T13:59:58;3.00;;;1.60;;
9256;SDS011;4665;51.368;6.782;2023-06-26T14:02:24;6.43;;;1.65;;
9256;SDS011;4665;51.368;6.782;2023-06-26T14:04:49;2.85;;;1.40;;
9256;SDS011;4665;51.368;6.782;2023-06-26T14:07:15;1.63;;;1.40;;
9256;SDS011;4665;51.368;6.782;2023-06-26T14:09:40;1.88;;;1.45;;
9256;SDS011;4665;51.368;6.782;2023-06-26T14:12:06;1.73;;;1.23;;
9256;SDS011;4665;51.368;6.782;2023-06-26T14:14:32;1.95;;;1.83;;
9256;SDS011;4665;51.368;6.782;2023-06-26T14:16:58;2.73;;;1.30;;
9256;SDS011;4665;51.368;6.782;2023-06-26T14:19:25;1.73;;;1.63;;
9256;SDS011;4665;51.368;6.782;2023-06-26T14:21:51;1.33;;;1.20;;
9256;SDS011;4665;51.368;6.782;2023-06-26T14:24:17;1.63;;;1.45;;
9256;SDS011;4665;51.368;6.782;2023-06-26T14:26:42;1.42;;;1.33;;
9256;SDS011;4665;51.368;6.782;2023-06-26T14:29:07;5.40;;;1.77;;
9256;SDS011;4665;51.368;6.782;2023-06-26T14:31:33;1.52;;;1.42;;
9256;SDS011;4665;51.368;6.782;2023-06-26T14:33:59;2.85;;;1.23;;
9256;SDS011;4665;51.368;6.782;2023-06-26T14:36:24;1.83;;;1.40;;
9256;SDS011;4665;51.368;6.782;2023-06-26T14:38:52;1.40;;;1.30;;
9256;SDS011;4665;51.368;6.782;2023-06-26T14:41:17;2.50;;;1.40;;
9256;SDS011;4665;51.368;6.782;2023-06-26T14:43:42;1.48;;;1.40;;
9256;SDS011;4665;51.368;6.782;2023-06-26T14:46:08;1.90;;;1.33;;
9256;SDS011;4665;51.368;6.782;2023-06-26T14:48:33;3.20;;;1.30;;
9256;SDS011;4665;51.368;6.782;2023-06-26T14:50:59;1.93;;;1.40;;
9256;SDS011;4665;51.368;6.782;2023-06-26T14:53:25;1.60;;;1.50;;
9256;SDS011;4665;51.368;6.782;2023-06-26T14:55:50;2.43;;;1.43;;
9256;SDS011;4665;51.368;6.782;2023-06-26T14:58:16;1.97;;;1.30;;
9256;SDS011;4665;51.368;6.782;2023-06-26T15:00:41;2.23;;;1.33;;
9256;SDS011;4665;51.368;6.782;2023-06-26T15:03:07;2.43;;;1.10;;
9256;SDS011;4665;51.368;6.782;2023-06-26T15:05:32;1.77;;;1.30;;
9256;SDS011;4665;51.368;6.782;2023-06-26T15:07:58;6.77;;;1.57;;
9256;SDS011;4665;51.368;6.782;2023-06-26T15:10:23;1.93;;;1.30;;
9256;SDS011;4665;51.368;6.782;2023-06-26T15:12:49;2.10;;;1.40;;
9256;SDS011;4665;51.368;6.782;2023-06-26T15:15:15;1.80;;;1.30;;
9256;SDS011;4665;51.368;6.782;2023-06-26T15:17:42;1.47;;;1.27;;
9256;SDS011;4665;51.368;6.782;2023-06-26T15:20:08;1.47;;;1.37;;
9256;SDS011;4665;51.368;6.782;2023-06-26T15:22:33;3.40;;;1.27;;
9256;SDS011;4665;51.368;6.782;2023-06-26T15:24:59;1.30;;;1.20;;
9256;SDS011;4665;51.368;6.782;2023-06-26T15:27:24;1.90;;;1.30;;
9256;SDS011;4665;51.368;6.782;2023-06-26T15:29:49;2.23;;;1.40;;
9256;SDS011;4665;51.368;6.782;2023-06-26T15:32:15;3.03;;;1.50;;
9256;SDS011;4665;51.368;6.782;2023-06-26T15:34:41;1.93;;;1.60;;
9256;SDS011;4665;51.368;6.782;2023-06-26T15:37:07;1.47;;;1.23;;
9256;SDS011;4665;51.368;6.782;2023-06-26T15:39:32;2.60;;;1.23;;
9256;SDS011;4665;51.368;6.782;2023-06-26T15:41:58;1.50;;;1.33;;
9256;SDS011;4665;51.368;6.782;2023-06-26T15:44:24;2.67;;;1.40;;
9256;SDS011;4665;51.368;6.782;2023-06-26T15:46:49;3.13;;;1.67;;
9256;SDS011;4665;51.368;6.782;2023-06-26T15:49:16;1.60;;;1.40;;
9256;SDS011;4665;51.368;6.782;2023-06-26T15:51:41;1.93;;;1.40;;
9256;SDS011;4665;51.368;6.782;2023-06-26T15:54:07;1.87;;;1.27;;
9256;SDS011;4665;51.368;6.782;2023-06-26T15:56:32;4.07;;;1.80;;
9256;SDS011;4665;51.368;6.782;2023-06-26T15:58:58;1.50;;;1.40;;
9256;SDS011;4665;51.368;6.782;2023-06-26T16:01:23;2.63;;;1.40;;
9256;SDS011;4665;51.368;6.782;2023-06-26T16:03:51;3.20;;;1.40;;
9256;SDS011;4665;51.368;6.782;2023-06-26T16:06:16;2.07;;;1.60;;
9256;SDS011;4665;51.368;6.782;2023-06-26T16:08:42;2.33;;;1.20;;
9256;SDS011;4665;51.368;6.782;2023-06-26T16:11:09;1.63;;;1.50;;
9256;SDS011;4665;51.368;6.782;2023-06-26T16:13:35;2.13;;;1.17;;
9256;SDS011;4665;51.368;6.782;2023-06-26T16:16:01;3.73;;;1.50;;
9256;SDS011;4665;51.368;6.782;2023-06-26T16:18:26;1.27;;;1.07;;
9256;SDS011;4665;51.368;6.782;2023-06-26T16:20:52;1.30;;;1.30;;
9256;SDS011;4665;51.368;6.782;2023-06-26T16:23:18;1.17;;;1.07;;